Time;durP1;ratioP1;P1;durP2;ratioP2;P2;SDS_P1;SDS_P2;PMS_P1;PMS_P2;Temp;Humidity;BMP_temperature;BMP_pressure;BME280_temperature;BME280_humidity;BME280_pressure;Samples;Min_cycle;Max_cycle;Signal;HPM_P1;HPM_P2
2022/11/19 00:00:35;;;;;;;;;43.25;37.00;;;;;-149.00;100.00;66333.84;5057949;28;50403;-77
2022/11/19 00:03:00;;;;;;;;;46.50;37.50;;;;;-149.00;100.00;66333.84;5059367;28;46497;-78
2022/11/19 00:05:25;;;;;;;;;44.00;36.50;;;;;-149.00;100.00;66333.84;5059686;28;45291;-77
2022/11/19 00:07:51;;;;;;;;;45.00;39.00;;;;;-149.00;100.00;66333.84;5059512;28;45186;-78
2022/11/19 00:10:17;;;;;;;;;49.75;39.25;;;;;-149.00;100.00;66333.84;5059309;28;51866;-77
2022/11/19 00:12:54;;;;;;;;;43.25;36.25;;;;;-149.00;100.00;66333.84;5057428;28;46315;-77
2022/11/19 00:15:21;;;;;;;;;41.00;35.25;;;;;-149.00;100.00;66333.84;5059466;28;45501;-78
2022/11/19 00:17:46;;;;;;;;;40.50;36.25;;;;;-149.00;100.00;66333.84;5059399;28;45382;-77
2022/11/19 00:20:11;;;;;;;;;33.75;31.75;;;;;-149.00;100.00;66333.84;5059059;28;45345;-78
2022/11/19 00:22:37;;;;;;;;;34.75;33.75;;;;;-149.00;100.00;66333.84;5057845;28;47315;-77
2022/11/19 00:25:03;;;;;;;;;45.75;38.00;;;;;-149.00;100.00;66333.84;5059209;28;45270;-78
2022/11/19 00:27:30;;;;;;;;;46.75;37.25;;;;;-149.00;100.00;66333.84;5059174;28;45335;-77
2022/11/19 00:29:55;;;;;;;;;43.25;35.75;;;;;-149.00;100.00;66333.84;5057522;28;46350;-77
2022/11/19 00:32:20;;;;;;;;;37.75;34.75;;;;;-149.00;100.00;66333.84;5059977;28;47046;-77
2022/11/19 00:34:45;;;;;;;;;42.75;35.00;;;;;-149.00;100.00;66333.84;5060684;28;49283;-77
2022/11/19 00:37:11;;;;;;;;;34.75;34.00;;;;;-149.00;100.00;66333.84;5079492;28;45434;-78
2022/11/19 00:39:36;;;;;;;;;44.00;36.50;;;;;-149.00;100.00;66333.84;5060831;28;47201;-77
2022/11/19 00:42:01;;;;;;;;;40.00;35.00;;;;;-149.00;100.00;66333.84;5079069;28;46900;-77
2022/11/19 00:44:27;;;;;;;;;23.25;23.25;;;;;-149.00;100.00;66333.84;5079235;28;45373;-77
2022/11/19 00:46:52;;;;;;;;;31.50;31.00;;;;;-149.00;100.00;66333.84;5061071;28;45324;-78
2022/11/19 00:49:17;;;;;;;;;37.00;35.00;;;;;-149.00;100.00;66333.84;5060993;28;46191;-77
2022/11/19 00:51:43;;;;;;;;;39.75;33.50;;;;;-149.00;100.00;66333.84;5079166;28;45376;-78
2022/11/19 00:54:08;;;;;;;;;47.75;40.00;;;;;-149.00;100.00;66333.84;5079181;28;45385;-78
2022/11/19 00:56:33;;;;;;;;;44.50;39.00;;;;;-149.00;100.00;66333.84;5060758;28;45327;-77
2022/11/19 00:58:59;;;;;;;;;41.25;37.25;;;;;-149.00;100.00;66333.84;5079051;28;45348;-78
2022/11/19 01:01:25;;;;;;;;;42.75;37.50;;;;;-149.00;100.00;66333.84;5067768;28;45593;-79
2022/11/19 01:03:52;;;;;;;;;44.25;39.00;;;;;-149.00;100.00;66333.84;5058717;28;45314;-78
2022/11/19 01:06:19;;;;;;;;;49.75;40.75;;;;;-149.00;100.00;66333.84;5058795;28;45300;-79
2022/11/19 01:08:46;;;;;;;;;46.75;39.25;;;;;-149.00;100.00;66333.84;5058548;28;45498;-78
2022/11/19 01:11:18;;;;;;;;;44.25;39.00;;;;;-149.00;100.00;66333.84;5058441;28;45573;-78
2022/11/19 01:13:44;;;;;;;;;49.75;42.75;;;;;-149.00;100.00;66333.84;5058522;28;45208;-78
2022/11/19 01:16:12;;;;;;;;;50.50;43.75;;;;;-149.00;100.00;66333.84;5058772;28;45227;-78
2022/11/19 01:18:39;;;;;;;;;50.50;42.00;;;;;-149.00;100.00;66333.84;5058349;28;45508;-77
2022/11/19 01:21:07;;;;;;;;;50.25;42.00;;;;;-149.00;100.00;66333.84;5058442;28;45381;-77
2022/11/19 01:23:32;;;;;;;;;51.25;44.50;;;;;-149.00;100.00;66333.84;5040241;28;45286;-77
2022/11/19 01:25:58;;;;;;;;;47.50;39.50;;;;;-149.00;100.00;66333.84;5061042;28;45213;-77
2022/11/19 01:28:24;;;;;;;;;50.50;40.25;;;;;-149.00;100.00;66333.84;5046062;28;46029;-77
2022/11/19 01:30:51;;;;;;;;;45.75;37.50;;;;;-149.00;100.00;66333.84;5063799;28;46545;-77
2022/11/19 01:33:16;;;;;;;;;44.25;38.00;;;;;-149.00;100.00;66333.84;5081992;28;45457;-78
2022/11/19 01:35:42;;;;;;;;;42.50;38.75;;;;;-149.00;100.00;66333.84;5063998;28;45407;-77
2022/11/19 01:38:08;;;;;;;;;43.25;36.50;;;;;-149.00;100.00;66333.84;5081931;28;45331;-77
2022/11/19 01:40:40;;;;;;;;;41.00;37.00;;;;;-149.00;100.00;66333.84;5081713;28;45350;-77
2022/11/19 01:43:09;;;;;;;;;40.25;36.00;;;;;-149.00;100.00;66333.84;5082007;28;45329;-78
2022/11/19 01:45:47;;;;;;;;;45.25;39.25;;;;;-149.00;100.00;66333.84;5063847;28;45388;-77
2022/11/19 01:48:21;;;;;;;;;42.75;36.50;;;;;-149.00;100.00;66333.84;5063495;28;46470;-77
2022/11/19 01:50:51;;;;;;;;;44.50;38.25;;;;;-149.00;100.00;66333.84;5081737;28;46211;-77
2022/11/19 01:53:19;;;;;;;;;44.25;39.00;;;;;-149.00;100.00;66333.84;5081726;28;45207;-77
2022/11/19 01:55:46;;;;;;;;;43.75;37.50;;;;;-149.00;100.00;66333.84;5063524;28;45517;-77
2022/11/19 01:58:15;;;;;;;;;45.50;40.00;;;;;-149.00;100.00;66333.84;5081603;28;45304;-77
2022/11/19 02:00:41;;;;;;;;;44.75;39.25;;;;;-149.00;100.00;66333.84;5062865;28;47148;-77
2022/11/19 02:03:07;;;;;;;;;47.75;40.25;;;;;-149.00;100.00;66333.84;5063022;28;51012;-77
2022/11/19 02:05:34;;;;;;;;;50.00;41.50;;;;;-149.00;100.00;66333.84;5081712;28;45331;-77
2022/11/19 02:07:59;;;;;;;;;48.00;40.00;;;;;-149.00;100.00;66333.84;5081481;28;45406;-77
2022/11/19 02:10:57;;;;;;;;;42.50;37.25;;;;;-149.00;100.00;66333.84;5062758;28;57541;-77
2022/11/19 02:13:37;;;;;;;;;44.50;39.00;;;;;-149.00;100.00;66333.84;5075733;28;45499;-77
2022/11/19 02:16:19;;;;;;;;;43.75;38.75;;;;;-149.00;100.00;66333.84;5081591;28;45279;-77
2022/11/19 02:18:56;;;;;;;;;48.00;40.75;;;;;-149.00;100.00;66333.84;5062775;28;47211;-77
2022/11/19 02:21:42;;;;;;;;;41.25;37.75;;;;;-149.00;100.00;66333.84;5081207;28;46163;-77
2022/11/19 02:24:24;;;;;;;;;42.75;37.00;;;;;-149.00;100.00;66333.84;5081169;28;45411;-76
2022/11/19 02:27:08;;;;;;;;;44.75;37.25;;;;;-149.00;100.00;66333.84;5081151;28;45341;-76
2022/11/19 02:29:45;;;;;;;;;39.50;34.75;;;;;-149.00;100.00;66333.84;5081086;28;45298;-76
2022/11/19 02:32:17;;;;;;;;;40.50;36.00;;;;;-149.00;100.00;66333.84;5081143;28;45370;-76
2022/11/19 02:34:49;;;;;;;;;37.75;35.25;;;;;-149.00;100.00;66333.84;5062855;28;45323;-76
2022/11/19 02:37:32;;;;;;;;;40.50;37.00;;;;;-149.00;100.00;66333.84;5062674;28;45402;-76
2022/11/19 02:40:22;;;;;;;;;44.00;37.25;;;;;-149.00;100.00;66333.84;5080869;28;45314;-77
2022/11/19 02:42:53;;;;;;;;;41.00;36.25;;;;;-149.00;100.00;66333.84;5080599;28;46305;-77
2022/11/19 02:45:25;;;;;;;;;41.25;37.25;;;;;-149.00;100.00;66333.84;5062763;28;46053;-76
2022/11/19 02:47:55;;;;;;;;;43.25;38.00;;;;;-149.00;100.00;66333.84;5062610;28;45323;-76
2022/11/19 02:50:30;;;;;;;;;44.75;35.75;;;;;-149.00;100.00;66333.84;5080909;28;45307;-76
2022/11/19 02:52:57;;;;;;;;;43.00;36.25;;;;;-149.00;100.00;66333.84;5062224;28;46200;-76
2022/11/19 02:55:22;;;;;;;;;38.00;35.25;;;;;-149.00;100.00;66333.84;5080904;28;45247;-76
2022/11/19 02:57:54;;;;;;;;;39.75;34.75;;;;;-149.00;100.00;66333.84;5080759;28;45408;-76
2022/11/19 03:06:15;;;;;;;;;46.00;39.50;;;;;-149.00;100.00;66333.84;5060106;28;45437;-76
2022/11/19 03:08:41;;;;;;;;;40.50;37.50;;;;;-149.00;100.00;66333.84;5042061;28;45368;-76
2022/11/19 03:11:24;;;;;;;;;42.25;35.25;;;;;-149.00;100.00;66333.84;5059996;28;45372;-78
2022/11/19 03:16:56;;;;;;;;;43.25;37.75;;;;;-149.00;100.00;66333.84;5059983;28;45331;-77
2022/11/19 03:19:57;;;;;;;;;39.00;34.25;;;;;-149.00;100.00;66333.84;5041934;28;45389;-77
2022/11/19 03:22:34;;;;;;;;;47.50;38.75;;;;;-149.00;100.00;66333.84;5008393;28;46003;-77
2022/11/19 03:25:06;;;;;;;;;39.25;37.00;;;;;-149.00;100.00;66333.84;5060021;28;45306;-77
2022/11/19 03:27:39;;;;;;;;;35.50;33.25;;;;;-149.00;100.00;66333.84;5059839;28;45299;-77
2022/11/19 03:30:06;;;;;;;;;41.75;37.25;;;;;-149.00;100.00;66333.84;5057990;28;45379;-76
2022/11/19 03:32:36;;;;;;;;;42.25;37.50;;;;;-149.00;100.00;66333.84;5080004;28;45475;-76
2022/11/19 03:35:12;;;;;;;;;43.00;36.50;;;;;-149.00;100.00;66333.84;5079993;28;45343;-77
2022/11/19 03:37:41;;;;;;;;;39.75;37.25;;;;;-149.00;100.00;66333.84;5079977;28;45493;-77
2022/11/19 03:40:09;;;;;;;;;39.75;36.75;;;;;-149.00;100.00;66333.84;5080159;28;45376;-76
2022/11/19 03:42:37;;;;;;;;;35.75;33.75;;;;;-149.00;100.00;66333.84;5061349;28;46204;-76
2022/11/19 03:45:10;;;;;;;;;37.00;34.25;;;;;-149.00;100.00;66333.84;5061672;28;48638;-77
2022/11/19 03:47:40;;;;;;;;;37.00;34.75;;;;;-149.00;100.00;66333.84;5079393;28;45328;-76
2022/11/19 03:50:18;;;;;;;;;38.75;36.25;;;;;-149.00;100.00;66333.84;5080019;28;45265;-77
2022/11/19 03:52:43;;;;;;;;;39.50;35.75;;;;;-149.00;100.00;66333.84;5079687;28;45306;-77
2022/11/19 03:55:10;;;;;;;;;36.50;34.25;;;;;-149.00;100.00;66333.84;5079701;28;46133;-77
2022/11/19 03:57:35;;;;;;;;;38.00;33.50;;;;;-149.00;100.00;66333.84;5061318;28;45225;-76
2022/11/19 04:00:01;;;;;;;;;42.00;36.25;;;;;-149.00;100.00;66333.84;5061350;28;45371;-76
2022/11/19 04:02:26;;;;;;;;;41.50;37.00;;;;;-149.00;100.00;66333.84;5079602;28;45311;-77
2022/11/19 04:04:51;;;;;;;;;35.50;33.50;;;;;-149.00;100.00;66333.84;5079662;28;45310;-77
2022/11/19 04:07:20;;;;;;;;;20.75;17.00;;;;;-149.00;100.00;66333.84;5061289;28;51729;-76
2022/11/19 04:09:46;;;;;;;;;34.50;33.75;;;;;-149.00;100.00;66333.84;5079872;28;45311;-77
2022/11/19 04:12:16;;;;;;;;;37.00;34.75;;;;;-149.00;100.00;66333.84;5079392;28;45355;-76
2022/11/19 04:14:42;;;;;;;;;30.50;29.25;;;;;-149.00;100.00;66333.84;5079788;28;45337;-77
2022/11/19 04:17:07;;;;;;;;;35.75;32.50;;;;;-149.00;100.00;66333.84;5079508;28;45418;-75
2022/11/19 04:19:32;;;;;;;;;38.25;32.25;;;;;-149.00;100.00;66333.84;5079713;28;45480;-76
2022/11/19 04:21:58;;;;;;;;;33.25;29.50;;;;;-149.00;100.00;66333.84;5079416;28;45375;-76
2022/11/19 04:24:23;;;;;;;;;32.25;29.00;;;;;-149.00;100.00;66333.84;5079253;28;48473;-76
2022/11/19 04:26:48;;;;;;;;;29.25;26.75;;;;;-149.00;100.00;66333.84;5079067;28;45379;-76
2022/11/19 04:29:14;;;;;;;;;23.00;20.50;;;;;-149.00;100.00;66333.84;5079407;28;45391;-76
2022/11/19 04:31:39;;;;;;;;;29.00;28.00;;;;;-149.00;100.00;66333.84;5079501;28;45583;-76
2022/11/19 04:34:04;;;;;;;;;30.25;27.25;;;;;-149.00;100.00;66333.84;5060889;28;46183;-76
2022/11/19 04:36:30;;;;;;;;;25.67;21.00;;;;;-149.00;100.00;66333.84;5079425;28;45437;-76
2022/11/19 04:38:55;;;;;;;;;23.33;23.33;;;;;-149.00;100.00;66333.84;5079351;28;45266;-77
2022/11/19 04:41:21;;;;;;;;;23.00;23.00;;;;;-149.00;100.00;66333.84;5079063;28;45288;-76
2022/11/19 04:43:46;;;;;;;;;18.67;18.67;;;;;-149.00;100.00;66333.84;5060984;28;47295;-77
2022/11/19 04:46:11;;;;;;;;;15.00;15.00;;;;;-149.00;100.00;66333.84;5079321;28;45241;-77
2022/11/19 04:48:37;;;;;;;;;28.33;26.33;;;;;-149.00;100.00;66333.84;5079366;28;45301;-77
2022/11/19 04:51:02;;;;;;;;;43.50;37.00;;;;;-149.00;100.00;66333.84;5079294;28;45513;-76
2022/11/19 04:53:27;;;;;;;;;47.75;40.25;;;;;-149.00;100.00;66333.84;5060617;28;48501;-77
2022/11/19 04:55:52;;;;;;;;;38.50;36.00;;;;;-149.00;100.00;66333.84;5078805;28;46980;-76
2022/11/19 04:58:18;;;;;;;;;44.00;38.00;;;;;-149.00;100.00;66333.84;5079339;28;45300;-76
2022/11/19 05:00:43;;;;;;;;;38.50;35.75;;;;;-149.00;100.00;66333.84;5081313;28;45462;-77
2022/11/19 05:03:08;;;;;;;;;33.75;33.25;;;;;-149.00;100.00;66333.84;5082611;28;46185;-77
2022/11/19 05:05:34;;;;;;;;;33.67;33.00;;;;;-149.00;100.00;66333.84;5082605;28;45473;-76
2022/11/19 05:07:59;;;;;;;;;31.75;31.25;;;;;-149.00;100.00;66333.84;5082631;28;45441;-77
2022/11/19 05:10:24;;;;;;;;;31.33;31.33;;;;;-149.00;100.00;66333.84;5082196;28;47251;-77
2022/11/19 05:12:50;;;;;;;;;29.33;27.00;;;;;-149.00;100.00;66333.84;5063712;28;52106;-77
2022/11/19 05:15:15;;;;;;;;;28.50;28.50;;;;;-149.00;100.00;66333.84;5064135;28;45376;-78
2022/11/19 05:17:41;;;;;;;;;25.67;25.67;;;;;-149.00;100.00;66333.84;5064265;28;45385;-77
2022/11/19 05:20:07;;;;;;;;;23.00;23.00;;;;;-149.00;100.00;66333.84;5082278;28;45564;-77
2022/11/19 05:22:33;;;;;;;;;19.00;19.00;;;;;-149.00;100.00;66333.84;5082292;28;45911;-77
2022/11/19 05:24:58;;;;;;;;;21.00;21.00;;;;;-149.00;100.00;66333.84;5082089;28;45350;-76
2022/11/19 05:27:23;;;;;;;;;25.33;23.00;;;;;-149.00;100.00;66333.84;5082231;28;45308;-77
2022/11/19 05:29:49;;;;;;;;;32.00;27.33;;;;;-149.00;100.00;66333.84;5082091;28;45396;-77
2022/11/19 05:32:14;;;;;;;;;22.00;17.33;;;;;-149.00;100.00;66333.84;5063984;28;47063;-77
2022/11/19 05:34:39;;;;;;;;;28.33;24.33;;;;;-149.00;100.00;66333.84;5082240;28;45303;-77
2022/11/19 05:37:04;;;;;;;;;29.33;24.00;;;;;-149.00;100.00;66333.84;5063875;28;45252;-77
2022/11/19 05:39:30;;;;;;;;;21.67;20.00;;;;;-149.00;100.00;66333.84;5082132;28;45332;-77
2022/11/19 05:41:55;;;;;;;;;24.00;21.00;;;;;-149.00;100.00;66333.84;5081770;28;45448;-77
2022/11/19 05:44:20;;;;;;;;;16.67;16.67;;;;;-149.00;100.00;66333.84;5081724;28;45332;-76
2022/11/19 05:46:46;;;;;;;;;21.00;18.00;;;;;-149.00;100.00;66333.84;5082302;28;45278;-77
2022/11/19 05:49:11;;;;;;;;;16.00;16.00;;;;;-149.00;100.00;66333.84;5081706;28;49485;-77
2022/11/19 05:51:36;;;;;;;;;19.00;18.00;;;;;-149.00;100.00;66333.84;5081975;28;45294;-77
2022/11/19 05:54:02;;;;;;;;;18.00;13.67;;;;;-149.00;100.00;66333.84;5081846;28;45347;-77
2022/11/19 05:56:27;;;;;;;;;17.67;15.33;;;;;-149.00;100.00;66333.84;5063461;28;45299;-78
2022/11/19 05:58:52;;;;;;;;;18.33;18.33;;;;;-149.00;100.00;66333.84;5063439;28;46472;-77
2022/11/19 06:01:25;;;;;;;;;20.33;19.00;;;;;-149.00;100.00;66333.84;5071009;28;53516;-76
2022/11/19 06:03:51;;;;;;;;;17.33;17.33;;;;;-149.00;100.00;66333.84;5061423;28;45320;-77
2022/11/19 06:06:16;;;;;;;;;21.00;19.67;;;;;-149.00;100.00;66333.84;5061313;28;45358;-77
2022/11/19 06:08:41;;;;;;;;;16.67;16.67;;;;;-149.00;100.00;66333.84;5042998;28;47341;-78
2022/11/19 06:11:46;;;;;;;;;15.33;15.33;;;;;-149.00;100.00;66333.84;5060660;28;45392;-78
2022/11/19 06:13:52;;;;;;;;;15.67;14.67;;;;;-149.00;100.00;66333.84;5060838;28;45317;-77
2022/11/19 06:16:17;;;;;;;;;15.00;15.00;;;;;-149.00;100.00;66333.84;5061405;28;45269;-77
2022/11/19 06:18:42;;;;;;;;;14.33;13.33;;;;;-149.00;100.00;66333.84;5061000;28;47391;-78
2022/11/19 06:21:08;;;;;;;;;14.00;14.00;;;;;-149.00;100.00;66333.84;5060937;28;50481;-78
2022/11/19 06:23:33;;;;;;;;;16.00;15.00;;;;;-149.00;100.00;66333.84;5060753;28;51566;-78
2022/11/19 06:25:58;;;;;;;;;14.33;14.33;;;;;-149.00;100.00;66333.84;5061042;28;45178;-78
2022/11/19 06:28:23;;;;;;;;;15.67;14.67;;;;;-149.00;100.00;66333.84;5062979;28;50371;-78
2022/11/19 06:30:49;;;;;;;;;15.33;13.33;;;;;-149.00;100.00;66333.84;5062872;28;47124;-78
2022/11/19 06:33:14;;;;;;;;;15.00;15.00;;;;;-149.00;100.00;66333.84;5081326;28;45389;-78
2022/11/19 06:35:39;;;;;;;;;14.67;14.33;;;;;-149.00;100.00;66333.84;5081214;28;47737;-77
2022/11/19 06:38:05;;;;;;;;;24.33;24.00;;;;;-149.00;100.00;66333.84;5080916;28;49329;-78
2022/11/19 06:40:30;;;;;;;;;15.67;15.33;;;;;-149.00;100.00;66333.84;5062454;28;50564;-79
2022/11/19 06:42:55;;;;;;;;;14.67;14.67;;;;;-149.00;100.00;66333.84;5081144;28;45314;-78
2022/11/19 06:45:20;;;;;;;;;17.67;17.67;;;;;-149.00;100.00;66333.84;5062963;28;45379;-78
2022/11/19 06:47:48;;;;;;;;;24.00;19.67;;;;;-149.00;100.00;66333.84;5062540;28;46200;-78
2022/11/19 06:50:13;;;;;;;;;24.67;23.67;;;;;-149.00;100.00;66333.84;5080965;28;45523;-78
2022/11/19 06:52:38;;;;;;;;;32.33;27.00;;;;;-149.00;100.00;66333.84;5080761;28;45339;-79
2022/11/19 06:55:04;;;;;;;;;33.67;29.67;;;;;-149.00;100.00;66333.84;5062614;28;45410;-77
2022/11/19 06:57:29;;;;;;;;;22.67;21.00;;;;;-149.00;100.00;66333.84;5067478;28;45363;-79
2022/11/19 06:59:55;;;;;;;;;25.00;24.00;;;;;-149.00;100.00;66333.84;5053666;28;47133;-79
2022/11/19 07:02:20;;;;;;;;;25.33;23.67;;;;;-149.00;100.00;66333.84;5090123;27;45311;-79
2022/11/19 07:04:45;;;;;;;;;22.00;21.00;;;;;-149.00;100.00;66333.84;5083012;27;45328;-79
2022/11/19 07:07:11;;;;;;;;;23.67;22.33;;;;;-149.00;100.00;66333.84;5100943;27;45577;-78
2022/11/19 07:09:36;;;;;;;;;22.00;22.00;;;;;-149.00;100.00;66333.84;5101156;27;45321;-79
2022/11/19 07:12:01;;;;;;;;;22.67;21.33;;;;;-149.00;100.00;66333.84;5100786;27;45268;-78
2022/11/19 07:14:27;;;;;;;;;19.00;18.33;;;;;-149.00;100.00;66333.84;5082599;27;45295;-79
2022/11/19 07:16:52;;;;;;;;;22.00;20.00;;;;;-149.00;100.00;66333.84;5100944;27;45513;-78
2022/11/19 07:19:18;;;;;;;;;22.33;20.00;;;;;-149.00;100.00;66333.84;5100820;27;46547;-78
2022/11/19 07:21:43;;;;;;;;;23.00;23.00;;;;;-149.00;100.00;66333.84;5100509;27;45233;-78
2022/11/19 07:24:09;;;;;;;;;23.67;22.00;;;;;-149.00;100.00;66333.84;5100382;27;45345;-78
2022/11/19 07:26:35;;;;;;;;;21.00;21.00;;;;;-149.00;100.00;66333.84;5100466;27;45320;-78
2022/11/19 07:29:02;;;;;;;;;22.00;21.33;;;;;-149.00;100.00;66333.84;5081919;27;48420;-77
2022/11/19 07:31:28;;;;;;;;;27.33;26.33;;;;;-149.00;100.00;66333.84;5100506;27;45497;-77
2022/11/19 07:33:53;;;;;;;;;24.67;23.00;;;;;-149.00;100.00;66333.84;5091783;27;45405;-77
2022/11/19 07:36:19;;;;;;;;;25.33;24.00;;;;;-149.00;100.00;66333.84;5079962;28;45456;-78
2022/11/19 07:38:45;;;;;;;;;24.33;23.67;;;;;-149.00;100.00;66333.84;5061619;28;47225;-78
2022/11/19 07:43:54;;;;;;;;;18.67;18.00;;;;;-149.00;100.00;66333.84;5080085;28;45469;-78
2022/11/19 07:46:20;;;;;;;;;23.67;23.67;;;;;-149.00;100.00;66333.84;5061593;28;47136;-78
2022/11/19 07:48:45;;;;;;;;;22.33;22.33;;;;;-149.00;100.00;66333.84;5061612;28;46907;-78
2022/11/19 07:51:10;;;;;;;;;33.00;31.67;;;;;-149.00;100.00;66333.84;5061768;28;45372;-78
2022/11/19 07:53:36;;;;;;;;;36.00;33.00;;;;;-149.00;100.00;66333.84;5080093;28;45370;-78
2022/11/19 07:56:01;;;;;;;;;30.67;27.67;;;;;-149.00;100.00;66333.84;5061473;28;46188;-78
2022/11/19 07:58:27;;;;;;;;;34.33;31.67;;;;;-149.00;100.00;66333.84;5079579;28;46341;-78
2022/11/19 08:00:52;;;;;;;;;31.67;27.00;;;;;-149.00;100.00;66333.84;5079994;27;45507;-78
2022/11/19 08:03:18;;;;;;;;;26.33;24.33;;;;;-149.00;100.00;66333.84;5097299;27;45200;-78
2022/11/19 08:05:43;;;;;;;;;28.00;27.33;;;;;-149.00;100.00;66333.84;5061706;28;46987;-78
2022/11/19 08:08:09;;;;;;;;;29.67;28.00;;;;;-149.00;100.00;66333.84;5079554;28;45534;-78
2022/11/19 08:10:34;;;;;;;;;31.33;24.67;;;;;-149.00;100.00;66333.84;5092102;27;45252;-78
2022/11/19 08:13:02;;;;;;;;;34.33;30.00;;;;;-149.00;100.00;66333.84;5100199;27;45289;-78
2022/11/19 08:15:32;;;;;;;;;28.33;27.33;;;;;-149.00;100.00;66333.84;5092453;27;45414;-78
2022/11/19 08:18:12;;;;;;;;;34.00;32.00;;;;;-149.00;100.00;66333.84;5079374;28;45314;-79
2022/11/19 08:20:43;;;;;;;;;29.67;28.00;;;;;-149.00;100.00;66333.84;5059714;28;45371;-78
2022/11/19 08:23:09;;;;;;;;;34.67;32.33;;;;;-149.00;100.00;66333.84;5078825;28;45344;-79
2022/11/19 08:25:34;;;;;;;;;39.33;32.00;;;;;-149.00;100.00;66333.84;5059826;28;45419;-79
2022/11/19 08:28:01;;;;;;;;;31.33;30.67;;;;;-149.00;100.00;66333.84;5059343;28;45957;-78
2022/11/19 08:30:27;;;;;;;;;31.33;27.67;;;;;-149.00;100.00;66333.84;5078696;28;45362;-78
2022/11/19 08:32:52;;;;;;;;;33.33;29.33;;;;;-149.00;100.00;66333.84;5060623;28;45498;-79
2022/11/19 08:35:17;;;;;;;;;34.00;31.67;;;;;-149.00;100.00;66333.84;5063984;28;45922;-79
2022/11/19 08:37:43;;;;;;;;;25.33;24.00;;;;;-149.00;100.00;66333.84;5081438;28;47604;-78
2022/11/19 08:40:08;;;;;;;;;27.00;25.00;;;;;-149.00;100.00;66333.84;5080656;28;45431;-78
2022/11/19 08:45:18;;;;;;;;;33.33;31.33;;;;;-149.00;100.00;66333.84;5080606;28;45597;-78
2022/11/19 08:47:43;;;;;;;;;33.00;32.00;;;;;-149.00;100.00;66333.84;5063197;28;48139;-78
2022/11/19 08:50:09;;;;;;;;;31.67;29.00;;;;;-149.00;100.00;66333.84;5064149;28;45384;-78
2022/11/19 08:52:34;;;;;;;;;34.00;32.00;;;;;-149.00;100.00;66333.84;5064334;28;45432;-78
2022/11/19 08:54:59;;;;;;;;;34.67;33.00;;;;;-149.00;100.00;66333.84;5064538;28;46099;-78
2022/11/19 08:57:25;;;;;;;;;36.00;32.67;;;;;-149.00;100.00;66333.84;5082267;28;52889;-79
2022/11/19 08:59:51;;;;;;;;;37.33;33.33;;;;;-149.00;100.00;66333.84;5082346;28;48136;-78
2022/11/19 09:02:16;;;;;;;;;38.33;34.33;;;;;-149.00;100.00;66333.84;5082700;28;45224;-78
2022/11/19 09:04:41;;;;;;;;;48.25;38.50;;;;;-149.00;100.00;66333.84;5082519;28;45318;-78
2022/11/19 09:07:07;;;;;;;;;47.25;39.75;;;;;-149.00;100.00;66333.84;5063868;28;47280;-79
2022/11/19 09:09:32;;;;;;;;;43.75;37.75;;;;;-149.00;100.00;66333.84;5064112;28;45310;-78
2022/11/19 09:11:58;;;;;;;;;31.33;30.33;;;;;-149.00;100.00;66333.84;5081903;28;47153;-78
2022/11/19 09:14:23;;;;;;;;;32.00;30.00;;;;;-149.00;100.00;66333.84;5082394;28;45465;-79
2022/11/19 09:16:48;;;;;;;;;35.33;32.67;;;;;-149.00;100.00;66333.84;5063445;28;52213;-78
2022/11/19 09:19:14;;;;;;;;;35.00;31.00;;;;;-149.00;100.00;66333.84;5082221;28;45271;-79
2022/11/19 09:21:39;;;;;;;;;32.67;31.00;;;;;-149.00;100.00;66333.84;5082460;28;45261;-78
2022/11/19 09:24:05;;;;;;;;;42.33;35.67;;;;;-149.00;100.00;66333.84;5082169;28;45294;-78
2022/11/19 09:26:30;;;;;;;;;42.00;37.33;;;;;-149.00;100.00;66333.84;5081984;28;45260;-79
2022/11/19 09:28:55;;;;;;;;;30.33;26.67;;;;;-149.00;100.00;66333.84;5081956;28;45351;-79
2022/11/19 09:31:20;;;;;;;;;24.67;23.67;;;;;-149.00;100.00;66333.84;5064079;28;45281;-78
2022/11/19 09:33:49;;;;;;;;;24.67;24.67;;;;;-149.00;100.00;66333.84;5082196;28;45265;-78
2022/11/19 09:36:16;;;;;;;;;30.00;28.00;;;;;-149.00;100.00;66333.84;5082101;28;45971;-79
2022/11/19 09:38:42;;;;;;;;;28.33;25.67;;;;;-149.00;100.00;66333.84;5082013;28;45443;-78
2022/11/19 09:41:30;;;;;;;;;22.67;22.33;;;;;-149.00;100.00;66333.84;5081813;28;45333;-78
2022/11/19 09:44:23;;;;;;;;;26.33;22.67;;;;;-149.00;100.00;66333.84;5063660;28;46318;-78
2022/11/19 09:47:16;;;;;;;;;25.67;25.00;;;;;-149.00;100.00;66333.84;5080977;28;45494;-79
2022/11/19 09:49:49;;;;;;;;;23.33;22.33;;;;;-149.00;100.00;66333.84;5081889;28;45312;-79
2022/11/19 09:52:18;;;;;;;;;22.67;21.67;;;;;-149.00;100.00;66333.84;5081758;28;45494;-78
2022/11/19 09:54:48;;;;;;;;;25.00;24.67;;;;;-149.00;100.00;66333.84;5081772;28;45184;-79
2022/11/19 09:57:23;;;;;;;;;19.67;19.67;;;;;-149.00;100.00;66333.84;5081405;28;45388;-79
2022/11/19 09:59:50;;;;;;;;;26.67;25.00;;;;;-149.00;100.00;66333.84;5081573;28;45335;-79
2022/11/19 10:02:19;;;;;;;;;25.33;24.67;;;;;-149.00;100.00;66333.84;5081492;28;45515;-79
2022/11/19 10:04:46;;;;;;;;;44.75;37.50;;;;;-149.00;100.00;66333.84;5081493;28;45329;-79
2022/11/19 10:07:25;;;;;;;;;38.00;34.33;;;;;-149.00;100.00;66333.84;5063205;28;47143;-78
2022/11/19 10:09:57;;;;;;;;;29.67;26.67;;;;;-149.00;100.00;66333.84;5081565;28;45315;-79
2022/11/19 10:12:56;;;;;;;;;31.33;30.00;;;;;-149.00;100.00;66333.84;5062921;28;45297;-79
2022/11/19 10:15:33;;;;;;;;;27.33;25.33;;;;;-149.00;100.00;66333.84;5063110;28;47053;-79
2022/11/19 10:18:16;;;;;;;;;25.67;24.33;;;;;-149.00;100.00;66333.84;5081336;28;45383;-79
2022/11/19 10:21:08;;;;;;;;;25.67;23.67;;;;;-149.00;100.00;66333.84;5081235;28;45481;-79
2022/11/19 10:23:54;;;;;;;;;29.00;26.67;;;;;-149.00;100.00;66333.84;5062876;28;45410;-79
2022/11/19 10:26:31;;;;;;;;;27.67;27.67;;;;;-149.00;100.00;66333.84;5080804;28;45343;-79
2022/11/19 10:28:57;;;;;;;;;25.67;25.67;;;;;-149.00;100.00;66333.84;5080801;28;46312;-79
2022/11/19 10:31:38;;;;;;;;;27.00;26.00;;;;;-149.00;100.00;66333.84;5081282;28;45285;-78
2022/11/19 10:34:16;;;;;;;;;25.00;24.67;;;;;-149.00;100.00;66333.84;5081180;28;45384;-79
2022/11/19 10:36:43;;;;;;;;;24.00;24.00;;;;;-149.00;100.00;66333.84;5081125;28;45331;-79
2022/11/19 10:39:09;;;;;;;;;27.33;26.67;;;;;-149.00;100.00;66333.84;5080780;28;46091;-79
2022/11/19 10:41:46;;;;;;;;;27.67;27.00;;;;;-149.00;100.00;66333.84;5062626;28;45337;-79
2022/11/19 10:44:41;;;;;;;;;31.33;29.67;;;;;-149.00;100.00;66333.84;5081194;28;45478;-79
2022/11/19 10:47:13;;;;;;;;;30.67;26.33;;;;;-149.00;100.00;66333.84;5080813;28;45343;-79
2022/11/19 10:49:40;;;;;;;;;23.33;22.00;;;;;-149.00;100.00;66333.84;5080920;28;45357;-78
2022/11/19 10:52:23;;;;;;;;;28.33;25.67;;;;;-149.00;100.00;66333.84;5080614;28;45276;-79
2022/11/19 10:54:54;;;;;;;;;26.33;25.00;;;;;-149.00;100.00;66333.84;5081070;28;45379;-79
2022/11/19 10:57:20;;;;;;;;;28.33;27.00;;;;;-149.00;100.00;66333.84;5079239;28;45450;-79
2022/11/19 10:59:51;;;;;;;;;30.00;30.00;;;;;-149.00;100.00;66333.84;5080674;28;46256;-78
2022/11/19 11:02:25;;;;;;;;;29.33;28.00;;;;;-149.00;100.00;66333.84;5080441;28;45276;-79
2022/11/19 11:04:59;;;;;;;;;28.67;23.33;;;;;-149.00;100.00;66333.84;5062342;28;45297;-79
2022/11/19 11:07:44;;;;;;;;;25.00;23.67;;;;;-149.00;100.00;66333.84;5080429;28;45506;-79
2022/11/19 11:10:26;;;;;;;;;31.67;29.33;;;;;-149.00;100.00;66333.84;5080281;28;45316;-78
2022/11/19 11:16:06;;;;;;;;;27.33;27.00;;;;;-149.00;100.00;66333.84;5080334;28;45335;-79
2022/11/19 11:18:31;;;;;;;;;34.67;31.00;;;;;-149.00;100.00;66333.84;5080381;28;45288;-77